createdAt,value
2023-06-26T00:00:43.919Z,36.60
2023-06-26T00:01:44.030Z,36.62
2023-06-26T00:02:43.801Z,36.69
2023-06-26T00:03:43.893Z,36.73
2023-06-26T00:04:43.846Z,36.68
2023-06-26T00:05:43.890Z,36.68
2023-06-26T00:06:43.963Z,36.72
2023-06-26T00:07:44.915Z,36.66
2023-06-26T00:08:44.011Z,36.66
2023-06-26T00:09:44.014Z,36.65
2023-06-26T00:10:44.052Z,36.60
2023-06-26T00:11:44.093Z,36.70
2023-06-26T00:12:44.131Z,36.70
2023-06-26T00:13:44.252Z,36.70
2023-06-26T00:14:44.203Z,36.65
2023-06-26T00:15:44.239Z,36.65
2023-06-26T00:16:44.275Z,36.69
2023-06-26T00:17:44.414Z,36.62
2023-06-26T00:18:44.343Z,36.62
2023-06-26T00:19:44.393Z,36.68
2023-06-26T00:20:44.437Z,36.65
2023-06-26T00:21:44.470Z,36.76
2023-06-26T00:22:44.567Z,36.58
2023-06-26T00:23:44.592Z,36.69
2023-06-26T00:24:44.597Z,36.74
2023-06-26T00:25:44.631Z,36.70
2023-06-26T00:26:44.673Z,36.69
2023-06-26T00:27:44.714Z,36.62
2023-06-26T00:28:44.760Z,36.72
2023-06-26T00:29:44.837Z,36.74
2023-06-26T00:30:44.857Z,36.73
2023-06-26T00:31:44.944Z,36.74
2023-06-26T00:32:45.000Z,36.75
2023-06-26T00:33:44.991Z,36.73
2023-06-26T00:34:45.026Z,36.66
2023-06-26T00:35:45.091Z,36.71
2023-06-26T00:36:45.122Z,36.74
2023-06-26T00:37:45.148Z,36.74
2023-06-26T00:38:45.192Z,36.67
2023-06-26T00:39:45.230Z,36.72
2023-06-26T00:40:45.294Z,36.71
2023-06-26T00:41:45.314Z,36.71
2023-06-26T00:42:45.378Z,36.71
2023-06-26T00:43:45.398Z,36.73
2023-06-26T00:44:45.444Z,36.74
2023-06-26T00:45:45.560Z,36.76
2023-06-26T00:46:45.575Z,36.70
2023-06-26T00:47:45.652Z,36.74
2023-06-26T00:48:46.694Z,36.76
2023-06-26T00:49:45.744Z,36.76
2023-06-26T00:50:45.749Z,36.72
2023-06-26T00:51:45.799Z,36.72
2023-06-26T00:52:45.835Z,36.72
2023-06-26T00:53:48.440Z,36.74
2023-06-26T00:54:45.898Z,36.68
2023-06-26T00:55:46.439Z,36.68
2023-06-26T00:56:45.834Z,36.69
2023-06-26T00:57:45.865Z,36.63
2023-06-26T00:58:45.834Z,36.71
2023-06-26T00:59:45.831Z,36.72
2023-06-26T01:00:45.833Z,36.71
2023-06-26T01:01:45.902Z,36.74
2023-06-26T01:02:45.939Z,36.68
2023-06-26T01:03:45.854Z,36.73
2023-06-26T01:04:46.446Z,36.74
2023-06-26T01:05:45.842Z,36.69
2023-06-26T01:06:45.983Z,36.72
2023-06-26T01:07:45.846Z,36.74
2023-06-26T01:08:45.863Z,36.72
2023-06-26T01:09:45.866Z,36.75
2023-06-26T01:10:45.878Z,36.67
2023-06-26T01:11:45.868Z,36.65
2023-06-26T01:12:45.874Z,36.67
2023-06-26T01:13:45.905Z,36.78
2023-06-26T01:14:45.943Z,36.72
2023-06-26T01:15:45.998Z,36.64
2023-06-26T01:16:46.052Z,36.71
2023-06-26T01:17:46.291Z,36.76
2023-06-26T01:18:46.456Z,36.72
2023-06-26T01:19:46.305Z,36.73
2023-06-26T01:20:46.470Z,36.67
2023-06-26T01:21:46.952Z,36.72
2023-06-26T01:22:46.382Z,36.72
2023-06-26T01:23:46.442Z,36.65
2023-06-26T01:24:46.500Z,36.69
2023-06-26T01:25:46.548Z,36.72
2023-06-26T01:26:46.602Z,36.72
2023-06-26T01:27:46.665Z,36.73
2023-06-26T01:28:46.726Z,36.73
2023-06-26T01:29:46.771Z,36.69
2023-06-26T01:30:46.844Z,36.65
2023-06-26T01:31:46.957Z,36.72
2023-06-26T01:32:47.053Z,36.72
2023-06-26T01:33:48.008Z,36.71
2023-06-26T01:34:47.073Z,36.73
2023-06-26T01:35:47.129Z,36.69
2023-06-26T01:36:47.180Z,36.71
2023-06-26T01:37:47.240Z,36.75
2023-06-26T01:38:47.298Z,36.66
2023-06-26T01:39:47.367Z,36.66
2023-06-26T01:40:47.417Z,36.68
2023-06-26T01:41:47.477Z,36.73
2023-06-26T01:42:47.537Z,36.66
2023-06-26T01:43:47.581Z,36.65
2023-06-26T01:44:47.639Z,36.61
2023-06-26T01:45:47.772Z,36.65
2023-06-26T01:46:47.752Z,36.71
2023-06-26T01:47:47.885Z,36.71
2023-06-26T01:48:47.877Z,36.68
2023-06-26T01:49:47.943Z,36.74
2023-06-26T01:50:47.968Z,36.66
2023-06-26T01:51:48.023Z,36.70
2023-06-26T01:52:48.092Z,36.63
2023-06-26T01:53:48.147Z,36.59
2023-06-26T01:54:48.192Z,36.64
2023-06-26T01:55:48.269Z,36.67
2023-06-26T01:56:48.298Z,36.62
2023-06-26T01:57:48.348Z,36.67
2023-06-26T01:58:48.514Z,36.61
2023-06-26T01:59:48.443Z,36.62
2023-06-26T02:00:48.548Z,36.59
2023-06-26T02:01:48.590Z,36.63
2023-06-26T02:02:48.673Z,36.71
2023-06-26T02:03:48.686Z,36.65
2023-06-26T02:04:48.692Z,36.65
2023-06-26T02:05:48.790Z,36.65
2023-06-26T02:06:48.885Z,36.65
2023-06-26T02:07:48.850Z,36.69
2023-06-26T02:08:48.904Z,36.62
2023-06-26T02:09:48.960Z,36.62
2023-06-26T02:10:49.006Z,36.63
2023-06-26T02:11:49.087Z,36.69
2023-06-26T02:12:49.108Z,36.65
2023-06-26T02:13:49.175Z,36.67
2023-06-26T02:14:49.223Z,36.62
2023-06-26T02:15:49.277Z,36.62
2023-06-26T02:16:49.332Z,36.62
2023-06-26T02:17:49.551Z,36.63
2023-06-26T02:18:49.463Z,36.63
2023-06-26T02:19:49.492Z,36.61
2023-06-26T02:20:49.552Z,36.66
2023-06-26T02:21:50.524Z,36.63
2023-06-26T02:22:49.653Z,36.60
2023-06-26T02:23:49.758Z,36.61
2023-06-26T02:24:49.772Z,36.62
2023-06-26T02:25:49.974Z,36.60
2023-06-26T02:26:49.875Z,36.62
2023-06-26T02:27:49.921Z,36.62
2023-06-26T02:28:49.972Z,36.65
2023-06-26T02:29:50.052Z,36.62
2023-06-26T02:30:50.516Z,36.66
2023-06-26T02:31:50.146Z,36.60
2023-06-26T02:32:50.292Z,36.58
2023-06-26T02:33:50.261Z,36.66
2023-06-26T02:34:50.316Z,36.60
2023-06-26T02:35:50.387Z,36.60
2023-06-26T02:36:50.438Z,36.62
2023-06-26T02:37:50.524Z,36.65
2023-06-26T02:38:50.556Z,36.59
2023-06-26T02:39:50.618Z,36.64
2023-06-26T02:40:50.708Z,36.61
2023-06-26T02:41:50.725Z,36.60
2023-06-26T02:42:50.786Z,36.58
2023-06-26T02:43:51.484Z,36.63
2023-06-26T02:44:50.893Z,36.63
2023-06-26T02:45:50.957Z,36.59
2023-06-26T02:46:51.062Z,36.58
2023-06-26T02:47:52.012Z,36.59
2023-06-26T02:48:51.105Z,36.57
2023-06-26T02:49:51.168Z,36.60
2023-06-26T02:50:51.221Z,36.58
2023-06-26T02:51:51.285Z,36.56
2023-06-26T02:52:51.335Z,36.55
2023-06-26T02:53:51.432Z,36.54
2023-06-26T02:54:51.472Z,36.56
2023-06-26T02:55:51.535Z,36.58
2023-06-26T02:56:51.586Z,36.60
2023-06-26T02:57:51.652Z,36.53
2023-06-26T02:58:51.719Z,36.53
2023-06-26T02:59:51.788Z,36.54
2023-06-26T03:00:51.904Z,36.52
2023-06-26T03:01:52.489Z,36.56
2023-06-26T03:02:51.981Z,36.49
2023-06-26T03:03:52.115Z,36.52
2023-06-26T03:04:52.097Z,36.49
2023-06-26T03:05:52.155Z,36.51
2023-06-26T03:06:52.235Z,36.52
2023-06-26T03:07:52.289Z,36.51
2023-06-26T03:08:52.350Z,36.63
2023-06-26T03:09:52.442Z,36.50
2023-06-26T03:10:52.473Z,36.56
2023-06-26T03:11:52.538Z,36.52
2023-06-26T03:12:52.601Z,36.56
2023-06-26T03:13:52.679Z,36.52
2023-06-26T03:14:52.762Z,36.48
2023-06-26T03:15:52.820Z,36.48
2023-06-26T03:16:52.971Z,36.53
2023-06-26T03:17:52.994Z,36.50
2023-06-26T03:18:53.993Z,36.54
2023-06-26T03:19:53.059Z,36.50
2023-06-26T03:20:53.999Z,36.50
2023-06-26T03:21:53.189Z,36.50
2023-06-26T03:22:53.247Z,36.50
2023-06-26T03:23:53.320Z,36.49
2023-06-26T03:24:53.385Z,36.50
2023-06-26T03:25:53.479Z,36.46
2023-06-26T03:26:53.512Z,36.48
2023-06-26T03:27:53.586Z,36.48
2023-06-26T03:28:53.645Z,36.52
2023-06-26T03:29:53.724Z,36.52
2023-06-26T03:30:53.790Z,36.48
2023-06-26T03:31:53.849Z,36.46
2023-06-26T03:32:54.563Z,36.46
2023-06-26T03:33:53.996Z,36.43
2023-06-26T03:34:54.073Z,36.48
2023-06-26T03:35:54.125Z,36.48
2023-06-26T03:36:54.186Z,36.50
2023-06-26T03:37:54.266Z,36.47
2023-06-26T03:38:54.335Z,36.49
2023-06-26T03:39:54.397Z,36.43
2023-06-26T03:40:54.469Z,36.49
2023-06-26T03:41:55.530Z,36.48
2023-06-26T03:42:54.600Z,36.50
2023-06-26T03:43:54.672Z,36.50
2023-06-26T03:44:54.748Z,36.47
2023-06-26T03:45:54.881Z,36.50
2023-06-26T03:46:54.868Z,36.53
2023-06-26T03:47:54.938Z,36.46
2023-06-26T03:48:55.006Z,36.44
2023-06-26T03:49:55.065Z,36.43
2023-06-26T03:50:55.135Z,36.47
2023-06-26T03:51:55.195Z,36.46
2023-06-26T03:52:55.284Z,36.42
2023-06-26T03:53:55.341Z,36.46
2023-06-26T03:54:55.415Z,36.44
2023-06-26T03:55:55.479Z,36.40
2023-06-26T03:56:55.540Z,36.40
2023-06-26T03:57:55.629Z,36.40
2023-06-26T03:58:55.667Z,36.44
2023-06-26T03:59:55.737Z,36.41
2023-06-26T04:00:55.800Z,36.42
2023-06-26T04:01:55.889Z,36.42
2023-06-26T04:02:55.948Z,36.44
2023-06-26T04:03:56.518Z,36.42
2023-06-26T04:04:56.150Z,36.42
2023-06-26T04:05:56.146Z,36.43
2023-06-26T04:06:56.246Z,36.39
2023-06-26T04:07:56.270Z,36.39
2023-06-26T04:08:56.336Z,36.46
2023-06-26T04:09:56.408Z,36.40
2023-06-26T04:10:56.490Z,36.40
2023-06-26T04:11:56.542Z,36.44
2023-06-26T04:12:56.598Z,36.43
2023-06-26T04:13:56.688Z,36.43
2023-06-26T04:14:56.727Z,36.44
2023-06-26T04:15:56.801Z,36.40
2023-06-26T04:16:56.864Z,36.43
2023-06-26T04:17:56.993Z,36.43
2023-06-26T04:18:57.079Z,36.38
2023-06-26T04:19:57.069Z,36.39
2023-06-26T04:20:57.138Z,36.40
2023-06-26T04:21:57.189Z,36.44
2023-06-26T04:22:57.257Z,36.39
2023-06-26T04:23:57.330Z,36.39
2023-06-26T04:24:57.407Z,36.38
2023-06-26T04:25:57.457Z,36.39
2023-06-26T04:26:57.527Z,36.40
2023-06-26T04:27:57.592Z,36.39
2023-06-26T04:28:57.663Z,36.43
2023-06-26T04:29:57.764Z,36.47
2023-06-26T04:30:57.811Z,36.39
2023-06-26T04:31:57.968Z,36.38
2023-06-26T04:32:57.953Z,36.38
2023-06-26T04:33:58.014Z,36.38
2023-06-26T04:34:58.076Z,36.38
2023-06-26T04:35:58.200Z,36.36
2023-06-26T04:36:58.186Z,36.38
2023-06-26T04:37:58.257Z,36.36
2023-06-26T04:38:58.324Z,36.40
2023-06-26T04:39:58.387Z,36.39
2023-06-26T04:40:58.455Z,36.32
2023-06-26T04:41:58.520Z,36.36
2023-06-26T04:42:58.586Z,36.32
2023-06-26T04:43:58.688Z,36.31
2023-06-26T04:44:58.724Z,36.23
2023-06-26T04:45:58.875Z,36.23
2023-06-26T04:46:58.862Z,36.21
2023-06-26T04:47:59.586Z,36.21
2023-06-26T04:48:59.006Z,36.12
2023-06-26T04:50:00.041Z,36.04
2023-06-26T04:50:59.559Z,36.08
2023-06-26T04:52:00.067Z,36.05
2023-06-26T04:52:59.257Z,36.05
2023-06-26T04:53:59.317Z,36.11
2023-06-26T04:54:59.391Z,36.10
2023-06-26T04:55:59.474Z,36.04
2023-06-26T04:56:59.527Z,35.98
2023-06-26T04:57:59.600Z,36.03
2023-06-26T04:58:59.678Z,36.05
2023-06-26T04:59:59.739Z,36.11
2023-06-26T05:00:59.882Z,36.12
2023-06-26T05:01:59.982Z,35.98
2023-06-26T05:03:00.038Z,35.98
2023-06-26T05:04:00.020Z,35.89
2023-06-26T05:05:00.070Z,35.88
2023-06-26T05:06:02.335Z,35.90
2023-06-26T05:07:01.187Z,35.90
2023-06-26T05:08:00.168Z,35.97
2023-06-26T05:09:00.273Z,35.97
2023-06-26T05:10:00.271Z,36.03
2023-06-26T05:11:00.313Z,35.96
2023-06-26T05:12:00.373Z,35.89
2023-06-26T05:13:00.427Z,35.98
2023-06-26T05:14:00.496Z,35.92
2023-06-26T05:15:00.559Z,35.90
2023-06-26T05:16:00.615Z,35.96
2023-06-26T05:17:00.661Z,35.96
2023-06-26T05:18:59.775Z,35.92
2023-06-26T05:20:00.829Z,35.88
2023-06-26T05:21:01.100Z,35.84
2023-06-26T05:22:00.949Z,35.84
2023-06-26T05:23:01.008Z,35.78
2023-06-26T05:24:01.064Z,35.49
2023-06-26T05:25:01.133Z,34.93
2023-06-26T05:26:01.194Z,34.73
2023-06-26T05:27:01.278Z,34.70
2023-06-26T05:28:01.352Z,34.59
2023-06-26T05:29:01.392Z,34.53
2023-06-26T05:30:01.433Z,34.42
2023-06-26T05:31:01.496Z,34.48
2023-06-26T05:32:01.532Z,34.33
2023-06-26T05:33:01.596Z,34.35
2023-06-26T05:34:01.610Z,34.38
2023-06-26T05:35:01.630Z,34.42
2023-06-26T05:36:01.635Z,34.30
2023-06-26T05:37:01.669Z,34.22
2023-06-26T05:38:01.734Z,34.31
2023-06-26T05:39:01.763Z,34.32
2023-06-26T05:40:04.566Z,34.22
2023-06-26T05:41:02.062Z,34.21
2023-06-26T05:42:01.856Z,34.37
2023-06-26T05:43:01.852Z,34.48
2023-06-26T05:44:01.940Z,34.33
2023-06-26T05:45:01.889Z,34.28
2023-06-26T05:46:02.071Z,34.48
2023-06-26T05:47:01.950Z,34.46
2023-06-26T05:48:02.026Z,34.43
2023-06-26T05:49:02.061Z,34.44
2023-06-26T05:50:02.022Z,34.36
2023-06-26T05:51:02.308Z,34.50
2023-06-26T05:52:02.409Z,34.46
2023-06-26T05:53:02.078Z,34.50
2023-06-26T05:54:02.077Z,34.56
2023-06-26T05:55:02.102Z,34.55
2023-06-26T05:56:02.626Z,34.71
2023-06-26T05:57:02.180Z,35.10
2023-06-26T05:58:02.202Z,35.14
2023-06-26T05:59:02.201Z,35.09
2023-06-26T06:00:02.246Z,35.25
2023-06-26T06:01:02.589Z,35.36
2023-06-26T06:02:02.382Z,35.40
2023-06-26T06:03:03.364Z,35.50
2023-06-26T06:04:02.388Z,35.57
2023-06-26T06:05:05.600Z,35.58
2023-06-26T06:06:03.082Z,35.68
2023-06-26T06:07:02.445Z,35.91
2023-06-26T06:08:05.647Z,35.95
2023-06-26T06:09:03.440Z,36.00
2023-06-26T06:10:02.642Z,35.98
2023-06-26T06:11:02.611Z,35.94
2023-06-26T06:12:02.488Z,35.97
2023-06-26T06:13:02.596Z,36.13
2023-06-26T06:14:02.524Z,36.19
2023-06-26T06:15:03.461Z,36.16
2023-06-26T06:16:02.536Z,36.05
2023-06-26T06:17:02.579Z,36.05
2023-06-26T06:18:02.638Z,36.18
2023-06-26T06:19:02.585Z,36.23
2023-06-26T06:20:02.619Z,36.31
2023-06-26T06:21:02.636Z,36.38
2023-06-26T06:22:02.626Z,36.42
2023-06-26T06:23:02.618Z,36.58
2023-06-26T06:24:03.083Z,36.32
2023-06-26T06:25:02.649Z,36.30
2023-06-26T06:26:02.656Z,36.15
2023-06-26T06:27:02.812Z,36.40
2023-06-26T06:28:03.433Z,36.64
2023-06-26T06:29:03.200Z,36.35
2023-06-26T06:30:02.924Z,36.30
2023-06-26T06:31:03.015Z,36.30
2023-06-26T06:32:03.085Z,36.37
2023-06-26T06:33:03.196Z,36.38
2023-06-26T06:34:03.618Z,36.38
2023-06-26T06:35:03.311Z,36.48
2023-06-26T06:36:03.585Z,36.46
2023-06-26T06:37:03.444Z,36.57
2023-06-26T06:38:03.495Z,36.53
2023-06-26T06:39:03.569Z,36.34
2023-06-26T06:40:04.118Z,36.45
2023-06-26T06:41:03.725Z,36.15
2023-06-26T06:42:03.763Z,36.31
2023-06-26T06:43:03.810Z,36.39
2023-06-26T06:44:03.863Z,36.49
2023-06-26T06:45:04.105Z,36.99
2023-06-26T06:46:03.968Z,35.84
2023-06-26T06:47:04.025Z,34.74
2023-06-26T06:48:04.157Z,34.84
2023-06-26T06:49:04.589Z,34.38
2023-06-26T06:50:04.219Z,34.15
2023-06-26T06:51:04.297Z,34.06
2023-06-26T06:52:04.795Z,33.84
2023-06-26T06:53:04.458Z,33.84
2023-06-26T06:54:04.462Z,33.78
2023-06-26T06:55:04.525Z,33.72
2023-06-26T06:56:05.101Z,33.73
2023-06-26T06:57:05.088Z,33.59
2023-06-26T06:58:06.127Z,33.58
2023-06-26T06:59:04.937Z,33.63
2023-06-26T07:00:05.012Z,33.35
2023-06-26T07:01:05.083Z,33.66
2023-06-26T07:02:05.675Z,33.94
2023-06-26T07:03:05.363Z,34.08
2023-06-26T07:04:05.344Z,34.27
2023-06-26T07:05:05.309Z,34.38
2023-06-26T07:06:05.600Z,34.83
2023-06-26T07:07:05.522Z,35.07
2023-06-26T07:08:06.472Z,35.06
2023-06-26T07:09:05.487Z,35.36
2023-06-26T07:10:05.528Z,35.29
2023-06-26T07:11:06.095Z,35.18
2023-06-26T07:12:05.570Z,35.17
2023-06-26T07:13:05.594Z,35.22
2023-06-26T07:14:05.633Z,35.30
2023-06-26T07:15:06.124Z,35.89
2023-06-26T07:16:06.122Z,35.82
2023-06-26T07:17:05.684Z,35.91
2023-06-26T07:18:05.742Z,35.73
2023-06-26T07:19:05.710Z,35.88
2023-06-26T07:20:07.104Z,35.82
2023-06-26T07:21:06.099Z,35.51
2023-06-26T07:22:05.757Z,36.04
2023-06-26T07:23:05.748Z,36.06
2023-06-26T07:24:05.760Z,35.90
2023-06-26T07:25:05.755Z,36.36
2023-06-26T07:26:06.125Z,36.76
2023-06-26T07:27:05.745Z,36.57
2023-06-26T07:28:05.719Z,36.47
2023-06-26T07:29:05.752Z,36.45
2023-06-26T07:30:05.722Z,36.47
2023-06-26T07:31:06.125Z,36.75
2023-06-26T07:32:05.717Z,37.16
2023-06-26T07:33:05.700Z,37.41
2023-06-26T07:34:05.727Z,37.49
2023-06-26T07:35:05.682Z,37.10
2023-06-26T07:36:06.107Z,37.13
2023-06-26T07:37:05.670Z,36.93
2023-06-26T07:38:05.641Z,36.68
2023-06-26T07:39:05.634Z,37.21
2023-06-26T07:40:05.679Z,37.20
2023-06-26T07:41:06.104Z,37.42
2023-06-26T07:42:05.591Z,37.26
2023-06-26T07:43:05.608Z,37.41
2023-06-26T07:44:05.593Z,37.11
2023-06-26T07:45:05.638Z,37.06
2023-06-26T07:46:06.113Z,36.81
2023-06-26T07:47:05.738Z,35.82
2023-06-26T07:48:15.648Z,35.99
2023-06-26T07:49:05.722Z,36.13
2023-06-26T07:50:05.728Z,35.37
2023-06-26T07:51:06.147Z,35.60
2023-06-26T07:52:05.704Z,35.41
2023-06-26T07:53:05.686Z,35.41
2023-06-26T07:54:05.682Z,34.43
2023-06-26T07:55:05.685Z,34.04
2023-06-26T07:56:05.717Z,33.28
2023-06-26T07:57:12.777Z,33.19
2023-06-26T07:58:05.647Z,33.10
2023-06-26T07:59:05.649Z,33.15
2023-06-26T08:02:56.390Z,33.17
2023-06-26T08:04:06.330Z,33.11
2023-06-26T08:04:57.452Z,33.11
2023-06-26T08:08:34.471Z,33.13
2023-06-26T08:09:35.470Z,33.12
2023-06-26T08:10:35.537Z,33.09
2023-06-26T08:11:35.668Z,33.10
2023-06-26T08:12:35.449Z,33.37
2023-06-26T08:13:35.402Z,33.56
2023-06-26T08:14:35.360Z,33.65
2023-06-26T08:15:35.361Z,33.78
2023-06-26T08:16:35.630Z,33.96
2023-06-26T08:17:35.338Z,34.02
2023-06-26T08:18:35.266Z,34.08
2023-06-26T08:19:35.247Z,34.15
2023-06-26T08:20:35.298Z,34.19
2023-06-26T08:21:35.628Z,33.95
2023-06-26T08:22:35.175Z,34.08
2023-06-26T08:23:35.142Z,34.25
2023-06-26T08:24:35.120Z,34.28
2023-06-26T08:25:35.094Z,34.36
2023-06-26T08:26:35.125Z,34.31
2023-06-26T08:27:35.128Z,34.36
2023-06-26T08:28:35.129Z,34.36
2023-06-26T08:29:35.820Z,34.36
2023-06-26T08:30:35.191Z,34.46
2023-06-26T08:31:35.144Z,34.36
2023-06-26T08:32:34.997Z,34.40
2023-06-26T08:33:35.128Z,34.54
2023-06-26T08:34:34.937Z,34.52
2023-06-26T08:35:34.919Z,34.58
2023-06-26T08:36:35.132Z,34.60
2023-06-26T08:37:34.913Z,34.42
2023-06-26T08:38:34.872Z,34.48
2023-06-26T08:39:34.854Z,34.52
2023-06-26T08:40:34.819Z,34.59
2023-06-26T08:41:35.136Z,34.67
2023-06-26T08:42:34.805Z,34.48
2023-06-26T08:43:34.832Z,33.79
2023-06-26T08:44:35.525Z,33.40
2023-06-26T08:45:35.791Z,33.12
2023-06-26T08:46:35.202Z,33.32
2023-06-26T08:47:34.784Z,33.36
2023-06-26T08:48:34.691Z,33.32
2023-06-26T08:49:34.665Z,33.43
2023-06-26T08:50:34.645Z,33.57
2023-06-26T08:51:34.636Z,33.73
2023-06-26T08:52:34.617Z,33.41
2023-06-26T08:53:34.605Z,33.59
2023-06-26T08:54:34.588Z,33.66
2023-06-26T08:55:34.591Z,33.82
2023-06-26T08:56:34.650Z,33.82
2023-06-26T08:57:34.590Z,33.96
2023-06-26T08:58:35.563Z,33.94
2023-06-26T08:59:34.698Z,33.98
2023-06-26T09:00:34.634Z,33.89
2023-06-26T09:01:34.731Z,33.92
2023-06-26T09:02:34.718Z,33.92
2023-06-26T09:03:34.734Z,33.87
2023-06-26T09:04:34.733Z,33.85
2023-06-26T09:05:34.776Z,33.94
2023-06-26T09:06:35.163Z,33.78
2023-06-26T09:07:34.963Z,33.78
2023-06-26T09:08:35.149Z,33.87
2023-06-26T09:09:34.939Z,33.81
2023-06-26T09:10:34.977Z,33.83
2023-06-26T09:11:35.028Z,33.90
2023-06-26T09:12:35.081Z,33.80
2023-06-26T09:13:35.153Z,33.84
2023-06-26T09:14:35.137Z,33.84
2023-06-26T09:15:35.368Z,33.94
2023-06-26T09:16:35.288Z,34.05
2023-06-26T09:17:35.287Z,34.00
2023-06-26T09:18:35.659Z,34.02
2023-06-26T09:19:37.263Z,34.11
2023-06-26T09:20:35.326Z,34.01
2023-06-26T09:21:35.289Z,34.07
2023-06-26T09:22:35.290Z,34.08
2023-06-26T09:23:35.326Z,34.19
2023-06-26T09:24:35.800Z,34.21
2023-06-26T09:25:35.184Z,34.23
2023-06-26T09:26:35.175Z,34.21
2023-06-26T09:27:35.137Z,34.29
2023-06-26T09:28:35.170Z,34.27
2023-06-26T09:29:35.089Z,34.31
2023-06-26T09:30:35.101Z,33.94
2023-06-26T09:31:40.552Z,32.91
2023-06-26T09:32:35.159Z,32.90
2023-06-26T09:33:35.169Z,33.01
2023-06-26T09:34:34.964Z,33.10
2023-06-26T09:35:34.942Z,32.84
2023-06-26T09:36:37.277Z,32.60
2023-06-26T09:37:35.175Z,32.54
2023-06-26T09:38:38.330Z,32.67
2023-06-26T09:39:35.107Z,32.48
2023-06-26T09:40:37.039Z,32.52
2023-06-26T09:41:35.048Z,32.52
2023-06-26T09:42:35.238Z,32.54
2023-06-26T09:43:36.828Z,32.66
2023-06-26T09:44:34.988Z,32.89
2023-06-26T09:45:35.084Z,33.15
2023-06-26T09:46:35.261Z,33.13
2023-06-26T09:47:35.250Z,33.40
2023-06-26T09:48:34.903Z,33.60
2023-06-26T09:49:35.173Z,33.61
2023-06-26T09:50:34.861Z,33.61
2023-06-26T09:51:34.835Z,33.71
2023-06-26T09:52:34.789Z,33.72
2023-06-26T09:53:34.741Z,33.94
2023-06-26T09:54:34.705Z,33.96
2023-06-26T09:55:34.680Z,34.23
2023-06-26T09:56:34.753Z,34.21
2023-06-26T09:57:34.621Z,34.15
2023-06-26T09:58:34.596Z,34.32
2023-06-26T09:59:34.668Z,34.30
2023-06-26T10:00:34.544Z,34.63
2023-06-26T10:01:34.684Z,34.64
2023-06-26T10:02:34.623Z,34.81
2023-06-26T10:03:34.697Z,34.92
2023-06-26T10:04:34.855Z,34.86
2023-06-26T10:05:34.368Z,34.87
2023-06-26T10:06:35.022Z,34.54
2023-06-26T10:07:34.379Z,34.50
2023-06-26T10:08:34.265Z,34.50
2023-06-26T10:09:34.230Z,34.55
2023-06-26T10:10:34.221Z,34.59
2023-06-26T10:11:34.161Z,34.47
2023-06-26T10:12:34.176Z,34.47
2023-06-26T10:13:34.152Z,34.44
2023-06-26T10:14:34.071Z,34.39
2023-06-26T10:15:34.056Z,34.48
2023-06-26T10:16:34.087Z,34.40
2023-06-26T10:17:34.200Z,34.46
2023-06-26T10:18:34.048Z,34.39
2023-06-26T10:19:37.286Z,34.44
2023-06-26T10:20:34.039Z,34.37
2023-06-26T10:21:34.007Z,34.40
2023-06-26T10:22:41.573Z,34.35
2023-06-26T10:23:33.945Z,34.36
2023-06-26T10:24:34.188Z,34.32
2023-06-26T10:25:33.930Z,34.37
2023-06-26T10:26:33.854Z,34.38
2023-06-26T10:27:33.827Z,34.39
2023-06-26T10:28:33.804Z,34.38
2023-06-26T10:29:34.201Z,34.32
2023-06-26T10:30:33.738Z,34.33
2023-06-26T10:31:34.312Z,34.33
2023-06-26T10:32:33.714Z,34.36
2023-06-26T10:33:33.672Z,34.38
2023-06-26T10:34:33.626Z,34.36
2023-06-26T10:35:33.713Z,34.23
2023-06-26T10:36:33.786Z,34.11
2023-06-26T10:37:33.555Z,34.13
2023-06-26T10:38:33.524Z,33.95
2023-06-26T10:39:33.529Z,34.20
2023-06-26T10:40:34.149Z,34.09
2023-06-26T10:41:33.448Z,34.22
2023-06-26T10:42:33.416Z,34.18
2023-06-26T10:43:33.686Z,34.20
2023-06-26T10:44:33.364Z,33.89
2023-06-26T10:45:33.368Z,34.25
2023-06-26T10:46:33.689Z,34.10
2023-06-26T10:47:33.585Z,33.93
2023-06-26T10:48:33.498Z,34.13
2023-06-26T10:49:33.513Z,34.20
2023-06-26T10:50:33.564Z,34.16
2023-06-26T10:51:33.730Z,34.12
2023-06-26T10:52:33.645Z,34.13
2023-06-26T10:53:33.668Z,34.10
2023-06-26T10:54:33.717Z,34.17
2023-06-26T10:55:33.764Z,34.03
2023-06-26T10:56:34.188Z,34.02
2023-06-26T10:57:33.849Z,34.15
2023-06-26T10:58:33.891Z,34.01
2023-06-26T10:59:33.940Z,34.07
2023-06-26T11:00:34.104Z,34.04
2023-06-26T11:01:34.176Z,34.08
2023-06-26T11:02:34.094Z,33.99
2023-06-26T11:03:34.108Z,33.93
2023-06-26T11:04:34.182Z,34.16
2023-06-26T11:05:34.173Z,34.03
2023-06-26T11:06:34.726Z,34.02
2023-06-26T11:07:34.324Z,34.13
2023-06-26T11:08:34.461Z,34.12
2023-06-26T11:09:34.401Z,33.92
2023-06-26T11:10:34.498Z,34.14
2023-06-26T11:11:34.945Z,34.06
2023-06-26T11:12:34.511Z,33.97
2023-06-26T11:13:34.806Z,34.16
2023-06-26T11:14:34.912Z,34.03
2023-06-26T11:15:34.620Z,34.16
2023-06-26T11:16:34.892Z,34.02
2023-06-26T11:17:35.146Z,33.82
2023-06-26T11:18:34.700Z,33.92
2023-06-26T11:19:35.290Z,33.91
2023-06-26T11:20:34.791Z,33.70
2023-06-26T11:21:35.230Z,33.27
2023-06-26T11:22:35.061Z,32.90
2023-06-26T11:23:34.959Z,32.90
2023-06-26T11:24:35.141Z,33.05
2023-06-26T11:25:36.209Z,33.23
2023-06-26T11:26:35.254Z,33.17
2023-06-26T11:27:34.994Z,33.29
2023-06-26T11:28:35.030Z,33.14
2023-06-26T11:29:35.277Z,33.09
2023-06-26T11:30:35.417Z,33.24
2023-06-26T11:31:35.242Z,33.33
2023-06-26T11:32:35.171Z,33.40
2023-06-26T11:33:35.212Z,33.55
2023-06-26T11:34:35.167Z,33.43
2023-06-26T11:35:35.192Z,33.77
2023-06-26T11:36:35.415Z,33.93
2023-06-26T11:37:35.273Z,34.14
2023-06-26T11:38:35.240Z,34.12
2023-06-26T11:39:35.302Z,34.11
2023-06-26T11:40:35.269Z,34.16
2023-06-26T11:41:35.732Z,34.23
2023-06-26T11:42:35.303Z,34.29
2023-06-26T11:43:35.777Z,34.30
2023-06-26T11:44:35.315Z,34.28
2023-06-26T11:45:35.333Z,34.25
2023-06-26T11:46:35.339Z,34.34
2023-06-26T11:47:35.569Z,34.09
2023-06-26T11:48:35.419Z,33.66
2023-06-26T11:49:35.356Z,33.68
2023-06-26T11:50:35.349Z,33.43
2023-06-26T11:51:35.377Z,33.39
2023-06-26T11:52:35.385Z,33.28
2023-06-26T11:53:35.431Z,33.29
2023-06-26T11:54:35.356Z,33.11
2023-06-26T11:55:35.370Z,32.97
2023-06-26T11:56:35.342Z,32.75
2023-06-26T11:57:35.730Z,32.86
2023-06-26T11:58:35.322Z,32.53
2023-06-26T11:59:35.322Z,32.83
2023-06-26T12:00:35.298Z,32.37
2023-06-26T12:01:35.333Z,32.51
2023-06-26T12:02:35.753Z,32.62
2023-06-26T12:03:35.328Z,32.53
2023-06-26T12:04:35.373Z,32.59
2023-06-26T12:05:35.154Z,32.40
2023-06-26T12:06:35.254Z,32.58
2023-06-26T12:07:35.300Z,32.59
2023-06-26T12:08:35.080Z,32.66
2023-06-26T12:09:35.046Z,32.72
2023-06-26T12:10:35.019Z,32.78
2023-06-26T12:11:35.317Z,32.74
2023-06-26T12:12:35.227Z,32.71
2023-06-26T12:13:35.232Z,32.71
2023-06-26T12:14:34.901Z,32.76
2023-06-26T12:15:35.869Z,32.73
2023-06-26T12:16:34.825Z,32.79
2023-06-26T12:17:34.829Z,32.69
2023-06-26T12:18:34.754Z,32.63
2023-06-26T12:19:34.736Z,32.60
2023-06-26T12:20:34.684Z,32.57
2023-06-26T12:21:34.746Z,32.69
2023-06-26T12:22:34.916Z,32.26
2023-06-26T12:23:34.815Z,32.41
2023-06-26T12:24:34.561Z,32.42
2023-06-26T12:25:34.778Z,32.26
2023-06-26T12:26:34.520Z,32.17
2023-06-26T12:27:34.509Z,32.23
2023-06-26T12:28:34.470Z,32.13
2023-06-26T12:29:34.472Z,31.75
2023-06-26T12:30:34.447Z,31.60
2023-06-26T12:31:34.790Z,31.81
2023-06-26T12:32:34.462Z,31.90
2023-06-26T12:33:34.442Z,31.86
2023-06-26T12:34:34.415Z,31.43
2023-06-26T12:35:34.614Z,31.64
2023-06-26T12:36:34.810Z,31.58
2023-06-26T12:37:34.458Z,31.76
2023-06-26T12:38:34.368Z,31.59
2023-06-26T12:39:34.359Z,31.61
2023-06-26T12:40:34.498Z,31.73
2023-06-26T12:41:34.748Z,31.82
2023-06-26T12:42:34.332Z,31.83
2023-06-26T12:43:34.671Z,32.03
2023-06-26T12:44:34.356Z,32.22
2023-06-26T12:45:34.270Z,32.41
2023-06-26T12:46:34.326Z,32.66
2023-06-26T12:47:34.593Z,32.89
2023-06-26T12:48:34.326Z,33.08
2023-06-26T12:49:34.249Z,33.25
2023-06-26T12:50:34.233Z,33.35
2023-06-26T12:51:34.359Z,33.35
2023-06-26T12:52:34.748Z,33.31
2023-06-26T12:53:37.426Z,33.37
2023-06-26T12:54:34.204Z,33.60
2023-06-26T12:55:34.167Z,32.57
2023-06-26T12:56:34.097Z,31.46
2023-06-26T12:57:34.241Z,31.47
2023-06-26T12:58:33.996Z,30.74
2023-06-26T12:59:33.966Z,31.13